In Rescue
 
Open Full Screen Window  High Contrast Mode
Wind Gusting 24 knots
10
May 19, 2019 12:26 PM EDT
Weather Information
Wind Direction
  230 °
Wind Speed
  10 kt (12 mph)
Wind Gust
  24 kt (28 mph)
Variable Wind
200°
260°
Altimeter
29.88 in
Visibility
10 SM
Temperature
27° C
81° F
Dewpoint
11° C
52° F
Humidity
37%
1hr Rain Fall
00.00 in.
24hr Rain Fall
00.00 in.
Sky Condition
Clear
VFR

METAR KPOV 191626Z AUTO 23010G24KT 200V260 10SM CLR 27/11 A2988 RMK AO2 T02730109 PWINO

FAA Disclaimer: The data displayed is for advisory purposes only and is not to be used for flight planning or operations.